WARM SPRINGS (USACE) (WRS)

Elevation: 440' · RUSSIAN R basin · Operator: US Army Corps of Engineers

Provisional data, subject to change.
Query executed Saturday at 0:22:23   clock

Select a sensor type for a plot of data.
Note: Reservoir Flows are daily averages.

Earlier

Date RES ELE    STORAGE    RES CHG    TOC STO    ABV TOC    OUTFLOW    INFLOW    PPT INC    TEMP MN    TEMP MX    EVP PAN   
 FEET   AF   AF   AF   AF   CFS   CFS   INCHES   DEG F   DEG F   INCHES  
11/21/2014 402.22 137589 -- 245000 -- 89 10 0.06 8 14 0.03
11/22/2014 402.21 137571 -- 245000 -- 89 83 0.52 8 19 0.04
11/23/2014 402.12 137410 -- 245000 -107590 89 11 0.00 6 18 0.04
11/24/2014 402.02 137231 -179 245000 -107769 88 1 0.00 4 19 0.04
11/25/2014 401.92 137053 -178 245000 -107947 88 1 0.00 6 20 0.04
11/26/2014 401.82 136874 -179 245000 -108126 88 1 0.01 5 21 0.04
11/27/2014 401.74 136732 -142 245000 -108268 88 20 0.00 5 20 0.04
11/28/2014 401.70 136660 -72 245000 -108340 88 54 0.54 4 16 0.03
11/29/2014 401.66 136589 -71 245000 -108411 88 55 0.23 12 17 0.03
11/30/2014 401.64 136553 -36 245000 -108447 88 72 0.51 12 14 0.02
12/01/2014 401.63 136536 -17 245000 -108464 88 82 0.34 12 18 0.03
12/02/2014 401.77 136785 249 245000 -108215 89 216 1.72 11 16 0.02
12/03/2014 403.97 140745 3960 245000 -104255 95 2093 2.58 13 17 0.02
12/04/2014 404.42 141565 820 245000 -103435 88 504 0.00 12 17 0.03
12/05/2014 405.20 142993 1428 245000 -102007 91 812 1.95 12 16 0.01
12/06/2014 405.83 144153 1160 245000 -100847 90 677 0.01 10 17 0.03
12/07/2014 405.99 144449 296 245000 -100551 90 242 0.00 8 15 0.03
12/08/2014 406.14 144727 278 245000 -100273 89 231 0.14 14 16 0.02
12/09/2014 406.27 144968 241 245000 -100032 89 212 0.02 12 16 0.02
12/10/2014 406.93 146195 1227 245000 -98805 92 711 1.75 13 14 0.01
12/11/2014 417.16 166118 19923 245000 -78882 107 10152 5.88 10 16 0.01
12/12/2014 418.99 169865 3747 245000 -75135 95 1986 0.33 7 12 0.02
12/13/2014 419.63 171188 1323 245000 -73812 95 764 0.00 4 14 0.03
12/14/2014 419.98 171915 727 245000 -73085 95 463 0.03 7 13 0.03
12/15/2014 420.70 173416 1501 245000 -71584 96 854 1.07 9 11 0.01
12/16/2014 421.98 176107 2691 245000 -68893 96 1454 0.78 9 12 0.01
12/17/2014 423.35 179017 2910 245000 -65983 96 1565 0.43 9 13 0.03
12/18/2014 424.22 180882 1865 245000 -64118 96 1038 0.19 10 13 0.02
12/19/2014 -- -- -- -- -- 97 -- -- 11 15 0.03
12/20/2014 -- -- -- -- -- -- -- -- -- -- --

Later | Latest

Warning! This data is preliminary and subject to revision.

Show WRS Map | Plot WRS Data | 1 Month WRS Data | Real-Time WRS Data | WRS Info